Time;durP1;ratioP1;P1;durP2;ratioP2;P2;SDS_P1;SDS_P2;PMS_P1;PMS_P2;Temp;Humidity;BMP_temperature;BMP_pressure;BME280_temperature;BME280_humidity;BME280_pressure;Samples;Min_cycle;Max_cycle;Signal;HPM_P1;HPM_P2
2023/03/04 00:00:06;;;;;;;15.93;3.40;;;;;;;7.72;61.94;102556.13;5074554;28;20118;-59
2023/03/04 00:02:31;;;;;;;17.30;3.53;;;;;;;7.67;62.46;102561.97;5074608;28;20110;-63
2023/03/04 00:04:56;;;;;;;18.40;3.70;;;;;;;7.69;61.70;102563.84;5074583;28;20103;-59
2023/03/04 00:07:22;;;;;;;14.65;3.17;;;;;;;7.64;61.66;102567.09;5056612;28;20036;-59
2023/03/04 00:09:47;;;;;;;15.43;3.15;;;;;;;7.62;62.07;102568.72;5074626;28;20024;-58
2023/03/04 00:12:13;;;;;;;16.73;3.00;;;;;;;7.61;61.97;102569.53;5056561;28;20389;-59
2023/03/04 00:14:38;;;;;;;10.82;2.63;;;;;;;7.65;62.04;102572.41;5074354;28;20029;-59
2023/03/04 00:17:04;;;;;;;18.10;3.88;;;;;;;7.61;62.71;102569.53;5074413;28;20025;-59
2023/03/04 00:19:30;;;;;;;15.00;3.28;;;;;;;7.65;62.68;102567.16;5074241;28;20021;-59
2023/03/04 00:21:55;;;;;;;22.65;3.55;;;;;;;7.66;62.58;102558.41;5074305;28;20028;-59
2023/03/04 00:24:21;;;;;;;15.98;3.45;;;;;;;7.66;62.79;102561.06;5074611;28;20153;-60
2023/03/04 00:26:46;;;;;;;16.40;3.60;;;;;;;7.63;63.11;102560.91;5074340;28;20119;-60
2023/03/04 00:29:12;;;;;;;17.70;3.90;;;;;;;7.55;63.45;102554.38;5074503;28;20039;-60
2023/03/04 00:31:37;;;;;;;16.58;3.65;;;;;;;7.50;63.54;102555.88;5074346;28;20037;-60
2023/03/04 00:34:02;;;;;;;18.27;3.40;;;;;;;7.44;63.85;102560.81;5074096;28;20381;-60
2023/03/04 00:36:28;;;;;;;17.58;2.97;;;;;;;7.34;63.59;102566.44;5074255;28;20111;-60
2023/03/04 00:38:53;;;;;;;17.25;3.15;;;;;;;7.36;63.80;102562.13;5074054;28;20047;-61
2023/03/04 00:41:19;;;;;;;11.43;2.97;;;;;;;7.39;63.85;102560.56;5073968;28;20032;-60
2023/03/04 00:43:44;;;;;;;16.17;3.78;;;;;;;7.43;63.83;102559.91;5074235;28;20169;-60
2023/03/04 00:46:09;;;;;;;18.20;3.33;;;;;;;7.39;63.36;102560.56;5073844;28;20056;-60
2023/03/04 00:48:35;;;;;;;19.05;3.30;;;;;;;7.37;63.86;102556.97;5073236;28;20033;-60
2023/03/04 00:51:00;;;;;;;12.18;2.83;;;;;;;7.32;64.22;102563.69;5055626;28;20025;-60
2023/03/04 00:53:25;;;;;;;15.60;3.25;;;;;;;7.30;64.35;102557.47;5073367;28;20031;-60
2023/03/04 00:55:51;;;;;;;15.18;2.72;;;;;;;7.31;63.82;102555.75;5073710;28;20029;-60
2023/03/04 00:58:16;;;;;;;16.77;2.95;;;;;;;7.29;64.59;102555.66;5073358;28;20127;-60
2023/03/04 01:00:42;;;;;;;15.05;3.35;;;;;;;7.27;64.09;102560.84;5073541;28;20119;-60
2023/03/04 01:03:07;;;;;;;16.05;3.10;;;;;;;7.31;64.43;102555.75;5055529;28;20111;-60
2023/03/04 01:05:34;;;;;;;16.20;2.83;;;;;;;7.27;64.32;102559.94;5055061;28;20470;-60
2023/03/04 01:08:00;;;;;;;15.63;3.28;;;;;;;7.32;64.05;102560.16;5073733;28;20107;-60
2023/03/04 01:10:25;;;;;;;16.25;2.70;;;;;;;7.33;64.08;102562.00;5073402;28;20565;-61
2023/03/04 01:12:51;;;;;;;13.10;2.97;;;;;;;7.32;64.94;102561.06;5073320;28;20497;-60
2023/03/04 01:15:16;;;;;;;17.10;3.28;;;;;;;7.26;64.67;102560.75;5073524;28;20111;-60
2023/03/04 01:17:42;;;;;;;14.30;2.78;;;;;;;7.21;64.62;102562.25;5055295;28;20037;-60
2023/03/04 01:20:09;;;;;;;17.17;3.55;;;;;;;7.17;64.64;102562.91;5073566;28;20520;-60
2023/03/04 01:22:35;;;;;;;14.95;2.67;;;;;;;7.15;65.60;102568.09;5072925;28;20445;-60
2023/03/04 01:25:00;;;;;;;14.45;3.10;;;;;;;7.13;65.02;102563.59;5073607;28;20053;-59
2023/03/04 01:27:25;;;;;;;18.58;2.80;;;;;;;7.17;65.02;102560.28;5073166;28;20033;-60
2023/03/04 01:29:51;;;;;;;16.45;2.95;;;;;;;7.17;65.27;102557.66;5073203;28;20029;-61
2023/03/04 01:32:16;;;;;;;9.95;2.50;;;;;;;7.24;65.21;102551.91;5073338;28;20473;-60
2023/03/04 01:34:42;;;;;;;12.25;2.70;;;;;;;7.14;65.60;102554.88;5073061;28;20107;-60
2023/03/04 01:37:08;;;;;;;13.15;2.88;;;;;;;7.06;66.46;102553.56;5073071;28;20035;-60
2023/03/04 01:39:33;;;;;;;14.48;3.25;;;;;;;7.03;65.69;102549.06;5073130;28;20531;-60
2023/03/04 01:41:59;;;;;;;14.88;2.85;;;;;;;6.98;66.16;102542.63;5073306;28;20108;-60
2023/03/04 01:44:25;;;;;;;15.88;2.90;;;;;;;6.96;65.91;102547.81;5073262;28;20024;-60
2023/03/04 01:46:53;;;;;;;14.02;2.65;;;;;;;6.94;66.23;102543.31;5055245;28;20028;-60
2023/03/04 01:49:19;;;;;;;16.90;3.22;;;;;;;6.89;66.16;102543.06;5072857;28;20055;-60
2023/03/04 01:51:48;;;;;;;14.50;2.63;;;;;;;6.96;66.33;102534.69;5072687;28;20032;-60
2023/03/04 01:54:15;;;;;;;17.65;2.80;;;;;;;6.98;66.20;102532.13;5072921;28;20033;-60
2023/03/04 01:56:43;;;;;;;15.82;3.08;;;;;;;6.95;66.71;102529.34;5072876;28;20406;-60
2023/03/04 01:59:24;;;;;;;19.63;2.97;;;;;;;6.96;67.01;102523.28;5072840;28;20051;-60
2023/03/04 02:01:56;;;;;;;12.80;2.47;;;;;;;6.98;65.93;102527.81;5073053;28;20572;-60
2023/03/04 02:04:25;;;;;;;16.00;2.75;;;;;;;6.94;67.11;102522.31;5072921;28;20028;-60
2023/03/04 02:06:51;;;;;;;14.40;2.65;;;;;;;6.86;65.99;102521.00;5073129;28;20016;-60
2023/03/04 02:09:17;;;;;;;12.05;2.30;;;;;;;6.86;66.62;102519.28;5072772;28;20500;-61
2023/03/04 02:11:44;;;;;;;16.38;2.80;;;;;;;6.82;66.33;102511.16;5072877;28;20059;-60
2023/03/04 02:14:12;;;;;;;13.57;2.67;;;;;;;6.76;66.41;102509.97;5072980;28;20102;-60
2023/03/04 02:16:38;;;;;;;12.60;2.20;;;;;;;6.79;66.83;102517.13;5072684;28;20031;-60
2023/03/04 02:19:15;;;;;;;9.05;2.00;;;;;;;6.82;66.98;102506.78;5075280;28;20025;-60
2023/03/04 02:21:40;;;;;;;9.38;2.03;;;;;;;6.86;66.59;102506.13;5076535;28;20102;-60
2023/03/04 02:24:32;;;;;;;15.20;2.70;;;;;;;6.89;66.30;102510.63;5076606;28;20478;-61
2023/03/04 02:26:58;;;;;;;14.00;2.55;;;;;;;6.89;67.50;102513.25;5071577;28;20036;-61
2023/03/04 02:29:23;;;;;;;14.23;2.80;;;;;;;6.91;66.31;102511.63;5076456;28;20485;-62
2023/03/04 02:31:51;;;;;;;13.13;2.63;;;;;;;6.89;67.35;102506.25;5076709;28;20108;-61
2023/03/04 02:34:19;;;;;;;14.98;2.40;;;;;;;6.93;66.77;102499.44;5076625;28;20021;-60
2023/03/04 02:36:47;;;;;;;14.50;2.92;;;;;;;6.91;66.50;102502.00;5076200;28;20379;-60
2023/03/04 02:39:18;;;;;;;13.48;3.08;;;;;;;6.83;66.55;102500.72;5076573;28;20024;-60
2023/03/04 02:41:44;;;;;;;10.75;2.28;;;;;;;6.85;66.58;102499.06;5058383;28;20036;-60
2023/03/04 02:44:17;;;;;;;10.90;2.50;;;;;;;6.75;67.65;102500.28;5076575;28;20492;-60
2023/03/04 02:46:43;;;;;;;16.67;2.60;;;;;;;6.71;67.79;102500.06;5076265;28;20025;-60
2023/03/04 02:49:08;;;;;;;10.30;2.28;;;;;;;6.72;67.89;102489.66;5076052;28;20036;-60
2023/03/04 02:51:34;;;;;;;11.70;2.38;;;;;;;6.80;67.54;102483.88;5058217;28;20032;-60
2023/03/04 02:53:59;;;;;;;16.63;2.88;;;;;;;6.82;67.43;102490.13;5076026;28;20056;-60
2023/03/04 02:56:24;;;;;;;12.55;2.70;;;;;;;6.78;67.78;102483.81;5076270;28;20145;-60
2023/03/04 02:58:50;;;;;;;12.80;2.50;;;;;;;6.79;68.26;102485.59;5076010;28;20401;-60
2023/03/04 03:01:15;;;;;;;16.38;3.17;;;;;;;6.74;68.38;102485.38;5075930;28;20029;-60
2023/03/04 03:03:40;;;;;;;11.93;2.65;;;;;;;6.76;67.64;102488.06;5075665;28;20024;-60
2023/03/04 03:06:06;;;;;;;13.13;2.60;;;;;;;6.74;67.74;102485.38;5057873;28;20029;-60
2023/03/04 03:08:32;;;;;;;18.83;3.08;;;;;;;6.70;68.46;102482.50;5075758;28;20036;-61
2023/03/04 03:10:58;;;;;;;9.07;2.03;;;;;;;6.73;68.70;102480.03;5075574;28;20481;-60
2023/03/04 03:13:23;;;;;;;10.85;2.58;;;;;;;6.77;68.39;102485.53;5075724;28;20052;-60
2023/03/04 03:15:49;;;;;;;9.57;2.20;;;;;;;6.74;68.60;102488.00;5075585;28;20033;-60
2023/03/04 03:18:15;;;;;;;12.38;2.83;;;;;;;6.73;68.91;102477.41;5075436;28;20103;-60
2023/03/04 03:20:41;;;;;;;11.55;2.38;;;;;;;6.71;68.10;102482.56;5075565;28;20496;-60
2023/03/04 03:23:06;;;;;;;10.40;2.20;;;;;;;6.66;68.78;102480.53;5075561;28;20470;-60
2023/03/04 03:25:32;;;;;;;13.30;2.85;;;;;;;6.58;69.23;102481.84;5075446;28;20545;-60
2023/03/04 03:27:57;;;;;;;9.07;2.25;;;;;;;6.61;69.48;102471.50;5075375;28;20035;-60
2023/03/04 03:30:23;;;;;;;17.60;2.67;;;;;;;6.58;69.22;102482.75;5074872;28;20031;-60
2023/03/04 03:32:48;;;;;;;12.73;2.17;;;;;;;6.59;69.31;102479.28;5057220;28;20033;-60
2023/03/04 03:35:14;;;;;;;10.98;2.58;;;;;;;6.58;69.25;102474.84;5057500;28;20055;-60
2023/03/04 03:37:39;;;;;;;10.63;2.58;;;;;;;6.64;69.27;102469.06;5075294;28;20024;-60
2023/03/04 03:40:05;;;;;;;9.77;2.40;;;;;;;6.64;69.34;102471.69;5057240;28;20028;-60
2023/03/04 03:42:30;;;;;;;10.10;3.17;;;;;;;6.66;69.25;102473.53;5075491;28;20028;-61
2023/03/04 03:44:56;;;;;;;15.85;2.97;;;;;;;6.69;69.51;102468.47;5075203;28;20564;-60
2023/03/04 03:47:22;;;;;;;11.10;2.25;;;;;;;6.70;69.46;102467.63;5075032;28;20062;-60
2023/03/04 03:49:48;;;;;;;10.52;2.53;;;;;;;6.65;69.10;102466.50;5074930;28;20094;-60
2023/03/04 03:52:13;;;;;;;11.07;2.70;;;;;;;6.64;69.20;102471.69;5074896;28;20412;-60
2023/03/04 03:54:39;;;;;;;15.02;2.78;;;;;;;6.68;69.05;102466.66;5074838;28;20037;-60
2023/03/04 03:57:05;;;;;;;12.18;2.30;;;;;;;6.68;69.19;102468.38;5074802;28;20024;-60
2023/03/04 03:59:30;;;;;;;10.38;2.58;;;;;;;6.73;68.76;102465.19;5074639;28;20048;-60
2023/03/04 04:01:56;;;;;;;15.85;2.63;;;;;;;6.79;68.58;102469.84;5074923;28;20028;-60
2023/03/04 04:04:21;;;;;;;11.75;2.55;;;;;;;6.77;68.66;102467.16;5074984;28;20025;-60
2023/03/04 04:06:46;;;;;;;13.38;2.50;;;;;;;6.76;69.08;102470.56;5074595;28;20021;-60
2023/03/04 04:09:12;;;;;;;13.15;2.70;;;;;;;6.72;68.05;102462.44;5074634;28;20085;-60
2023/03/04 04:11:37;;;;;;;17.60;2.35;;;;;;;6.72;68.08;102468.63;5056564;28;20024;-60
2023/03/04 04:14:03;;;;;;;13.63;2.58;;;;;;;6.77;67.73;102472.41;5074504;28;20033;-61
2023/03/04 04:16:30;;;;;;;12.77;2.50;;;;;;;6.76;67.66;102462.69;5074481;28;20029;-60
2023/03/04 04:18:55;;;;;;;9.73;2.20;;;;;;;6.77;68.22;102469.78;5074425;28;20060;-60
2023/03/04 04:21:20;;;;;;;15.13;2.47;;;;;;;6.79;67.35;102467.22;5074391;28;20120;-60
2023/03/04 04:23:46;;;;;;;9.75;2.63;;;;;;;6.78;67.30;102463.69;5074056;28;20036;-60
2023/03/04 04:26:11;;;;;;;14.77;2.50;;;;;;;6.75;68.09;102468.78;5074282;28;20103;-60
2023/03/04 04:28:36;;;;;;;12.55;2.45;;;;;;;6.71;67.66;102472.06;5074254;28;20493;-60
2023/03/04 04:31:06;;;;;;;10.40;2.30;;;;;;;6.67;68.44;102471.81;5074058;28;20028;-60
2023/03/04 04:33:31;;;;;;;16.30;2.78;;;;;;;6.66;68.14;102463.03;5056106;28;20041;-60
2023/03/04 04:35:57;;;;;;;14.02;2.50;;;;;;;6.66;68.81;102464.75;5074390;28;20078;-60
2023/03/04 04:38:23;;;;;;;10.02;2.42;;;;;;;6.62;68.65;102468.06;5074296;28;20120;-60
2023/03/04 04:40:48;;;;;;;12.02;2.10;;;;;;;6.62;68.31;102468.94;5073114;28;20028;-60
2023/03/04 04:43:14;;;;;;;10.02;2.60;;;;;;;6.60;67.93;102477.59;5073936;28;20433;-60
2023/03/04 04:45:40;;;;;;;13.70;2.90;;;;;;;6.58;68.59;102473.97;5074141;28;20029;-60
2023/03/04 04:48:06;;;;;;;9.20;2.42;;;;;;;6.58;68.86;102482.75;5073709;28;20032;-60
2023/03/04 04:50:31;;;;;;;12.18;2.38;;;;;;;6.62;68.19;102481.19;5055777;28;20394;-61
2023/03/04 04:52:56;;;;;;;11.57;2.45;;;;;;;6.62;67.82;102475.94;5073582;28;20032;-60
2023/03/04 04:55:22;;;;;;;12.35;2.40;;;;;;;6.61;67.92;102476.75;5073637;28;20103;-60
2023/03/04 04:57:47;;;;;;;14.02;2.47;;;;;;;6.71;67.82;102482.56;5073448;28;20028;-60
2023/03/04 05:00:13;;;;;;;16.00;2.47;;;;;;;6.66;68.12;102478.81;5055775;28;20094;-60
2023/03/04 05:02:38;;;;;;;13.43;2.55;;;;;;;6.64;68.37;102469.06;5055735;28;20029;-60
2023/03/04 05:05:05;;;;;;;12.70;2.45;;;;;;;6.72;68.30;102479.13;5073818;28;20036;-61
2023/03/04 05:07:32;;;;;;;17.17;2.80;;;;;;;6.77;67.86;102472.41;5073538;28;20386;-60
2023/03/04 05:09:57;;;;;;;14.82;2.75;;;;;;;6.85;67.30;102475.44;5073540;28;20025;-60
2023/03/04 05:12:22;;;;;;;11.40;2.90;;;;;;;6.84;67.06;102478.84;5073324;28;20504;-60
2023/03/04 05:14:48;;;;;;;17.80;2.75;;;;;;;6.87;67.38;102472.88;5055507;28;20020;-60
2023/03/04 05:17:13;;;;;;;13.65;2.72;;;;;;;6.77;67.68;102488.16;5055465;28;20503;-60
2023/03/04 05:19:39;;;;;;;14.45;2.70;;;;;;;6.72;68.05;102478.22;5073101;28;20032;-60
2023/03/04 05:22:04;;;;;;;12.02;2.47;;;;;;;6.71;67.63;102479.94;5073075;28;20111;-61
2023/03/04 05:24:29;;;;;;;17.27;3.05;;;;;;;6.72;68.39;102478.22;5073388;28;20036;-60
2023/03/04 05:26:55;;;;;;;11.43;3.80;;;;;;;6.71;67.97;102476.41;5073494;28;20021;-60
2023/03/04 05:29:20;;;;;;;18.90;3.58;;;;;;;6.66;68.34;102483.16;5073285;28;20035;-60
2023/03/04 05:31:46;;;;;;;9.52;2.70;;;;;;;6.66;68.34;102470.91;5073088;28;20477;-60
2023/03/04 05:34:11;;;;;;;12.18;2.90;;;;;;;6.65;68.24;102478.72;5073151;28;20029;-60
2023/03/04 05:36:37;;;;;;;8.95;2.40;;;;;;;6.64;68.59;102484.81;5073197;28;20075;-60
2023/03/04 05:39:02;;;;;;;17.33;2.65;;;;;;;6.57;69.08;102487.91;5073074;28;20055;-60
2023/03/04 05:41:27;;;;;;;8.90;2.47;;;;;;;6.56;69.09;102484.41;5073442;28;20074;-60
2023/03/04 05:43:53;;;;;;;12.23;2.20;;;;;;;6.57;69.12;102493.19;5055422;28;20393;-60
2023/03/04 05:46:24;;;;;;;12.90;2.30;;;;;;;6.57;68.90;102486.19;5072991;28;20035;-60
2023/03/04 05:48:50;;;;;;;10.90;2.35;;;;;;;6.58;69.41;102482.75;5073181;28;20089;-60
2023/03/04 05:51:16;;;;;;;11.07;2.30;;;;;;;6.60;69.14;102481.13;5072954;28;20412;-60
2023/03/04 05:53:41;;;;;;;10.70;2.63;;;;;;;6.63;68.96;102483.88;5072469;28;20035;-60
2023/03/04 05:56:12;;;;;;;13.23;2.65;;;;;;;6.61;69.76;102495.16;5073101;28;20504;-59
2023/03/04 05:58:38;;;;;;;13.45;2.60;;;;;;;6.60;69.03;102494.25;5072631;28;20084;-60
2023/03/04 06:01:04;;;;;;;12.32;2.42;;;;;;;6.61;69.31;102490.78;5054736;28;20496;-59
2023/03/04 06:03:30;;;;;;;15.30;2.85;;;;;;;6.58;70.03;102488.00;5072667;28;20016;-59
2023/03/04 06:05:55;;;;;;;10.65;2.30;;;;;;;6.57;69.96;102496.69;5072718;28;20048;-59
2023/03/04 06:08:21;;;;;;;14.30;2.30;;;;;;;6.55;70.19;102492.16;5072959;28;20025;-59
2023/03/04 06:10:46;;;;;;;13.23;2.47;;;;;;;6.49;70.93;102495.38;5054650;28;20028;-59
2023/03/04 06:13:12;;;;;;;9.50;2.28;;;;;;;6.49;71.08;102495.38;5072584;28;20051;-59
2023/03/04 06:15:39;;;;;;;9.70;2.33;;;;;;;6.41;70.84;102494.06;5072559;28;20021;-59
2023/03/04 06:18:06;;;;;;;9.05;2.30;;;;;;;6.36;71.36;102498.16;5072548;28;20507;-59
2023/03/04 06:20:32;;;;;;;9.48;2.33;;;;;;;6.33;71.08;102493.66;5072599;28;20070;-59
2023/03/04 06:22:57;;;;;;;13.90;3.25;;;;;;;6.30;71.47;102497.84;5072357;28;20394;-59
2023/03/04 06:25:22;;;;;;;7.13;2.08;;;;;;;6.36;71.45;102498.16;5072537;28;20112;-59
2023/03/04 06:27:48;;;;;;;8.63;1.98;;;;;;;6.34;71.56;102490.22;5072496;28;20103;-59
2023/03/04 06:30:14;;;;;;;12.43;2.20;;;;;;;6.33;71.40;102492.75;5072532;28;20077;-60
2023/03/04 06:32:43;;;;;;;9.65;2.10;;;;;;;6.33;71.77;102501.50;5072311;28;20032;-59
2023/03/04 06:35:09;;;;;;;8.95;2.35;;;;;;;6.34;71.52;102498.09;5072538;28;20094;-59
2023/03/04 06:37:34;;;;;;;9.27;2.05;;;;;;;6.41;71.43;102502.84;5072596;28;20024;-59
2023/03/04 06:40:00;;;;;;;9.40;2.20;;;;;;;6.41;71.96;102499.31;5072315;28;20052;-58
2023/03/04 06:42:26;;;;;;;11.13;2.17;;;;;;;6.35;72.24;102507.78;5072358;28;20036;-59
2023/03/04 06:44:51;;;;;;;8.05;2.15;;;;;;;6.32;72.87;102510.22;5054450;28;20031;-59
2023/03/04 06:47:17;;;;;;;12.57;2.50;;;;;;;6.36;72.98;102511.28;5072331;28;20111;-59
2023/03/04 06:49:43;;;;;;;6.43;2.00;;;;;;;6.40;73.09;102514.16;5072592;28;20450;-59
2023/03/04 06:52:10;;;;;;;6.47;2.08;;;;;;;6.39;73.56;102508.84;5072015;28;20546;-59
2023/03/04 06:54:36;;;;;;;7.50;2.05;;;;;;;6.41;73.55;102507.19;5054389;28;20393;-61
2023/03/04 06:57:01;;;;;;;9.13;2.45;;;;;;;6.43;73.54;102506.47;5072351;28;20029;-59
2023/03/04 06:59:27;;;;;;;7.18;2.40;;;;;;;6.43;74.02;102513.44;5071937;28;20115;-59
2023/03/04 07:01:53;;;;;;;3.45;1.58;;;;;;;6.45;73.70;102510.06;5072230;28;20055;-59
2023/03/04 07:04:19;;;;;;;9.25;2.50;;;;;;;6.44;74.59;102517.88;5073408;28;20107;-60
2023/03/04 07:06:44;;;;;;;10.73;2.17;;;;;;;6.42;75.50;102519.50;5075961;28;20063;-59
2023/03/04 07:09:09;;;;;;;6.15;1.95;;;;;;;6.40;75.14;102516.78;5075723;28;20520;-59
2023/03/04 07:11:35;;;;;;;13.95;4.28;;;;;;;6.45;75.20;102517.03;5075711;28;20057;-59
2023/03/04 07:14:00;;;;;;;12.13;3.88;;;;;;;6.49;75.15;102514.66;5075909;28;20017;-59
2023/03/04 07:16:26;;;;;;;9.77;2.42;;;;;;;6.57;75.31;102519.44;5075980;28;20048;-59
2023/03/04 07:18:51;;;;;;;8.90;2.47;;;;;;;6.60;75.49;102525.75;5075490;28;20441;-59
2023/03/04 07:21:18;;;;;;;9.57;2.30;;;;;;;6.55;75.83;102518.44;5075586;28;20028;-59
2023/03/04 07:23:44;;;;;;;6.28;2.15;;;;;;;6.56;75.88;102520.25;5075497;28;20025;-59
2023/03/04 07:26:09;;;;;;;5.85;2.10;;;;;;;6.54;75.40;102533.28;5057466;28;20424;-60
2023/03/04 07:28:35;;;;;;;10.65;2.50;;;;;;;6.59;75.50;102530.91;5075666;28;20028;-59
2023/03/04 07:31:22;;;;;;;9.65;2.47;;;;;;;6.63;75.51;102533.78;5075454;28;20028;-59
2023/03/04 07:33:47;;;;;;;12.07;2.53;;;;;;;6.71;74.41;102535.09;5075544;28;20043;-59
2023/03/04 07:36:15;;;;;;;9.75;2.33;;;;;;;6.74;75.05;102542.25;5075280;28;20036;-59
2023/03/04 07:38:48;;;;;;;7.95;2.40;;;;;;;6.78;75.04;102536.34;5075274;28;20402;-59
2023/03/04 07:41:15;;;;;;;8.23;2.30;;;;;;;6.80;74.73;102539.03;5075138;28;20520;-59
2023/03/04 07:43:40;;;;;;;8.73;2.25;;;;;;;6.86;74.19;102552.53;5075125;28;20527;-60
2023/03/04 07:46:06;;;;;;;9.82;3.55;;;;;;;6.92;74.59;102539.69;5075453;28;20111;-59
2023/03/04 07:48:32;;;;;;;7.10;2.28;;;;;;;6.98;74.41;102545.25;5075201;28;20027;-59
2023/03/04 07:51:11;;;;;;;12.35;2.67;;;;;;;6.97;74.28;102553.97;5075241;28;20020;-59
2023/03/04 07:53:38;;;;;;;7.20;2.00;;;;;;;6.95;74.99;102550.38;5074730;28;20492;-59
2023/03/04 07:56:04;;;;;;;10.75;2.25;;;;;;;6.88;74.12;102546.50;5075198;28;20029;-59
2023/03/04 07:58:30;;;;;;;11.60;2.95;;;;;;;6.89;74.42;102544.78;5074756;28;20525;-59
2023/03/04 08:00:56;;;;;;;8.93;2.80;;;;;;;6.92;74.74;102552.84;5074814;28;20025;-59
2023/03/04 08:03:21;;;;;;;9.13;2.88;;;;;;;6.98;74.53;102547.88;5074670;28;20036;-59
2023/03/04 08:05:46;;;;;;;10.00;3.10;;;;;;;7.00;74.72;102556.78;5074687;28;20409;-59
2023/03/04 08:08:12;;;;;;;11.00;3.20;;;;;;;6.99;74.71;102552.34;5074632;28;20029;-59
2023/03/04 08:10:38;;;;;;;7.15;2.60;;;;;;;7.02;74.20;102558.69;5074734;28;20053;-59
2023/03/04 08:13:06;;;;;;;8.13;2.45;;;;;;;7.14;74.16;102550.50;5074561;28;20028;-59
2023/03/04 08:15:32;;;;;;;10.13;2.63;;;;;;;7.26;73.97;102556.41;5074428;28;20024;-59
2023/03/04 08:17:58;;;;;;;7.93;2.38;;;;;;;7.34;73.74;102548.00;5074276;28;20386;-59
2023/03/04 08:20:23;;;;;;;10.85;2.55;;;;;;;7.40;72.78;102551.84;5056424;28;20029;-59
2023/03/04 08:22:50;;;;;;;10.02;2.78;;;;;;;7.49;73.08;102560.22;5074241;28;20029;-59
2023/03/04 08:25:15;;;;;;;13.50;3.13;;;;;;;7.51;72.31;102561.19;5074494;28;20104;-59
2023/03/04 08:27:41;;;;;;;9.80;2.50;;;;;;;7.60;73.20;102559.84;5074502;28;20066;-59
2023/03/04 08:30:07;;;;;;;7.97;2.47;;;;;;;7.63;72.40;102552.13;5074188;28;20032;-59
2023/03/04 08:32:33;;;;;;;7.75;2.40;;;;;;;7.80;72.97;102551.25;5073995;28;20586;-59
2023/03/04 08:35:01;;;;;;;9.65;2.63;;;;;;;8.09;72.51;102557.00;5073892;28;20476;-59
2023/03/04 08:37:27;;;;;;;11.00;3.20;;;;;;;8.26;71.61;102561.34;5073971;28;20024;-59
2023/03/04 08:39:52;;;;;;;9.07;2.50;;;;;;;8.34;69.89;102548.53;5073971;28;20116;-59
2023/03/04 08:42:17;;;;;;;10.48;2.78;;;;;;;8.33;69.55;102552.00;5073921;28;20458;-59
2023/03/04 08:44:43;;;;;;;6.28;2.78;;;;;;;8.37;69.92;102559.25;5073882;28;20037;-60
2023/03/04 08:47:09;;;;;;;7.00;2.42;;;;;;;8.39;69.55;102557.59;5073817;28;20054;-59
2023/03/04 08:49:35;;;;;;;9.65;2.45;;;;;;;8.42;69.92;102560.38;5073685;28;20394;-59
2023/03/04 08:52:00;;;;;;;10.82;2.45;;;;;;;8.48;70.34;102560.69;5073442;28;20028;-59
2023/03/04 08:54:26;;;;;;;11.93;2.75;;;;;;;8.59;70.01;102561.16;5073678;28;20029;-59
2023/03/04 08:56:51;;;;;;;8.45;2.58;;;;;;;8.60;69.12;102563.84;5073562;28;20189;-59
2023/03/04 08:59:16;;;;;;;7.63;2.35;;;;;;;8.60;69.49;102558.59;5073536;28;20053;-59
2023/03/04 09:01:42;;;;;;;8.02;1.90;;;;;;;8.54;69.76;102553.06;5073777;28;20035;-59
2023/03/04 09:04:07;;;;;;;3.55;1.70;;;;;;;8.58;70.47;102547.09;5073327;28;20478;-59
2023/03/04 09:06:33;;;;;;;5.15;1.88;;;;;;;8.83;70.24;102551.75;5073415;28;20112;-59
2023/03/04 09:08:58;;;;;;;6.80;2.30;;;;;;;9.07;69.04;102544.03;5073460;28;20029;-59
2023/03/04 09:11:24;;;;;;;10.13;2.53;;;;;;;9.20;68.93;102549.00;5073383;28;20037;-59
2023/03/04 09:13:50;;;;;;;11.13;2.50;;;;;;;9.33;66.59;102549.53;5073384;28;20033;-59
2023/03/04 09:16:16;;;;;;;10.27;2.50;;;;;;;9.36;65.95;102544.41;5073473;28;20078;-60
2023/03/04 09:18:42;;;;;;;9.43;2.40;;;;;;;9.32;66.36;102538.09;5073625;28;20025;-59
2023/03/04 09:21:08;;;;;;;7.82;2.40;;;;;;;9.46;66.02;102539.59;5073469;28;20025;-59
2023/03/04 09:23:34;;;;;;;8.27;2.60;;;;;;;9.47;65.98;102541.38;5072900;28;20025;-59
2023/03/04 09:25:59;;;;;;;7.57;2.40;;;;;;;9.48;66.00;102534.38;5073339;28;20036;-59
2023/03/04 09:28:25;;;;;;;12.23;2.60;;;;;;;9.57;65.79;102537.38;5072672;28;20386;-59
2023/03/04 09:30:50;;;;;;;6.40;2.33;;;;;;;9.89;64.79;102524.59;5073024;28;20040;-59
2023/03/04 09:33:16;;;;;;;7.70;2.40;;;;;;;10.08;63.20;102520.97;5072866;28;20036;-60
2023/03/04 09:35:42;;;;;;;7.25;2.67;;;;;;;10.23;63.27;102522.47;5073216;28;20481;-59
2023/03/04 09:38:08;;;;;;;7.47;2.38;;;;;;;10.42;62.56;102528.50;5073374;28;20029;-59
2023/03/04 09:40:42;;;;;;;6.18;2.40;;;;;;;10.68;62.05;102526.84;5073296;28;20039;-59
2023/03/04 09:43:17;;;;;;;9.50;2.50;;;;;;;10.69;61.04;102524.25;5073081;28;20025;-59
2023/03/04 09:45:48;;;;;;;5.20;2.30;;;;;;;10.71;60.83;102522.59;5055482;28;20111;-59
2023/03/04 09:48:19;;;;;;;7.10;2.20;;;;;;;10.64;60.57;102519.66;5073051;28;20028;-59
2023/03/04 09:50:52;;;;;;;5.38;2.53;;;;;;;10.56;60.62;102522.00;5055019;28;20111;-60
2023/03/04 09:53:46;;;;;;;15.57;2.38;;;;;;;10.54;61.42;102526.34;5072627;28;20115;-59
2023/03/04 09:56:13;;;;;;;8.82;2.38;;;;;;;10.41;61.45;102527.63;5072989;28;20028;-59
2023/03/04 09:58:51;;;;;;;5.63;2.05;;;;;;;10.31;62.02;102516.63;5054669;28;20078;-60
2023/03/04 10:01:53;;;;;;;5.53;2.15;;;;;;;10.21;62.68;102532.06;5072955;28;20028;-60
2023/03/04 10:04:43;;;;;;;6.60;2.20;;;;;;;10.09;63.07;102521.03;5068265;28;20037;-60
2023/03/04 10:07:23;;;;;;;11.02;2.55;;;;;;;9.92;63.52;102530.00;5072977;28;20020;-59
2023/03/04 10:10:10;;;;;;;4.47;1.85;;;;;;;9.81;63.87;102528.66;5072537;28;20561;-60
2023/03/04 10:12:39;;;;;;;4.65;2.10;;;;;;;9.77;64.01;102528.56;5072572;28;20021;-60
2023/03/04 10:15:23;;;;;;;5.65;1.90;;;;;;;9.74;64.70;102520.50;5072885;28;20021;-60
2023/03/04 10:17:55;;;;;;;3.70;1.80;;;;;;;9.72;64.31;102522.19;5072911;28;20032;-59
2023/03/04 10:20:24;;;;;;;6.30;2.53;;;;;;;9.74;64.63;102516.97;5072536;28;20039;-59
2023/03/04 10:22:52;;;;;;;5.22;2.20;;;;;;;9.81;64.34;102512.81;5072393;28;20028;-60
2023/03/04 10:25:27;;;;;;;6.82;2.10;;;;;;;9.96;64.30;102518.75;5072682;28;20031;-61
2023/03/04 10:28:01;;;;;;;5.43;2.20;;;;;;;10.18;63.28;102528.41;5072569;28;20051;-59
2023/03/04 10:30:48;;;;;;;5.72;2.40;;;;;;;10.36;63.63;102521.22;5072458;28;20482;-59
2023/03/04 10:33:34;;;;;;;6.47;2.47;;;;;;;10.43;62.96;102517.97;5072430;28;20060;-59
2023/03/04 10:36:29;;;;;;;6.53;2.45;;;;;;;10.47;62.66;102509.34;5072537;28;20020;-60
2023/03/04 10:39:17;;;;;;;8.43;2.53;;;;;;;10.52;62.53;102517.44;5072982;28;20025;-60
2023/03/04 10:41:45;;;;;;;4.90;2.03;;;;;;;10.31;62.45;102512.22;5076360;28;20111;-60
2023/03/04 10:44:17;;;;;;;7.30;2.30;;;;;;;10.16;63.04;102511.63;5076154;28;20024;-61
2023/03/04 10:46:47;;;;;;;7.18;2.33;;;;;;;9.98;63.58;102495.94;5058175;28;20036;-61
2023/03/04 10:49:16;;;;;;;7.07;2.30;;;;;;;9.92;63.98;102498.31;5075849;28;20470;-61
2023/03/04 10:51:50;;;;;;;6.22;2.20;;;;;;;9.78;64.86;102505.69;5076195;28;20024;-61
2023/03/04 10:54:46;;;;;;;4.72;2.05;;;;;;;9.75;65.08;102509.09;5075962;28;20068;-61
2023/03/04 10:57:16;;;;;;;6.32;2.60;;;;;;;9.66;65.79;102505.19;5058104;28;20028;-61
2023/03/04 10:59:53;;;;;;;5.35;2.20;;;;;;;9.58;66.04;102510.16;5075694;28;20131;-60
2023/03/04 11:02:30;;;;;;;8.02;2.25;;;;;;;9.41;66.98;102511.19;5075930;28;20474;-60
2023/03/04 11:05:13;;;;;;;6.07;2.10;;;;;;;9.38;67.17;102511.03;5075951;28;20035;-60
2023/03/04 11:07:45;;;;;;;7.03;2.40;;;;;;;9.40;67.80;102493.56;5057889;28;20588;-60
2023/03/04 11:10:18;;;;;;;6.60;2.30;;;;;;;9.34;68.37;102501.22;5076011;28;20040;-60
2023/03/04 11:13:17;;;;;;;6.55;2.20;;;;;;;9.42;68.44;102498.09;5041090;28;20659;-60
2023/03/04 11:16:01;;;;;;;5.75;2.08;;;;;;;9.34;68.78;102501.22;5075602;28;20144;-60
2023/03/04 11:18:48;;;;;;;5.90;2.08;;;;;;;9.27;69.09;102486.88;5075609;28;20099;-61
2023/03/04 11:21:20;;;;;;;6.00;2.08;;;;;;;9.25;69.43;102488.56;5075784;28;20016;-60
2023/03/04 11:23:52;;;;;;;;;;;;;;;9.36;68.64;102484.63;5075829;28;20498;-60
2023/03/04 11:26:29;;;;;;;5.07;1.95;;;;;;;9.33;68.83;102479.19;5075577;28;19908;-60
2023/03/04 11:29:20;;;;;;;3.63;1.98;;;;;;;9.48;68.22;102485.13;5075716;28;20048;-60
2023/03/04 11:32:08;;;;;;;6.10;2.10;;;;;;;9.65;68.23;102479.66;5057763;28;20035;-60